Time;durP1;ratioP1;P1;durP2;ratioP2;P2;SDS_P1;SDS_P2;PMS_P1;PMS_P2;Temp;Humidity;BMP_temperature;BMP_pressure;BME280_temperature;BME280_humidity;BME280_pressure;Samples;Min_cycle;Max_cycle;Signal;HPM_P1;HPM_P2
2023/03/14 00:01:09;;;;;;;0.00;0.00;;;;;;;10.45;98.80;97058.53;4966548;28;20726;-58
2023/03/14 00:03:36;;;;;;;0.00;0.00;;;;;;;10.47;95.75;97062.56;4957501;28;20288;-58
2023/03/14 00:06:03;;;;;;;0.00;0.00;;;;;;;10.52;95.72;97059.38;4968189;28;20353;-57
2023/03/14 00:08:29;;;;;;;0.00;0.00;;;;;;;10.58;95.47;97044.81;4965964;28;20554;-59
2023/03/14 00:10:57;;;;;;;0.00;0.00;;;;;;;10.58;94.83;97047.41;4966550;28;20772;-57
2023/03/14 00:13:24;;;;;;;0.00;0.00;;;;;;;10.61;92.14;97031.34;4968066;28;20239;-58
2023/03/14 00:15:52;;;;;;;0.00;0.00;;;;;;;10.61;93.73;97041.78;4965202;28;20307;-58
2023/03/14 00:18:19;;;;;;;0.00;0.00;;;;;;;10.57;94.07;97035.34;4950776;28;20251;-59
2023/03/14 00:20:46;;;;;;;0.00;0.00;;;;;;;10.55;94.47;97029.53;4964312;28;20763;-58
2023/03/14 00:23:12;;;;;;;0.00;0.00;;;;;;;10.52;95.87;97035.91;4967164;28;20241;-57
2023/03/14 00:25:39;;;;;;;0.00;0.00;;;;;;;10.52;96.14;97035.91;4963883;28;20236;-57
2023/03/14 00:28:06;;;;;;;0.00;0.00;;;;;;;10.61;93.60;97041.78;4967147;28;20328;-57
2023/03/14 00:30:32;;;;;;;0.00;0.00;;;;;;;10.61;94.49;97049.59;4965513;28;20239;-58
2023/03/14 00:33:00;;;;;;;0.00;0.00;;;;;;;10.58;96.16;97063.84;4964367;28;20233;-57
2023/03/14 00:35:27;;;;;;;0.00;0.00;;;;;;;10.56;95.88;97070.28;4949909;28;20231;-57
2023/03/14 00:37:53;;;;;;;0.00;0.00;;;;;;;10.53;98.20;97075.88;4944399;28;20243;-58
2023/03/14 00:40:20;;;;;;;0.00;0.00;;;;;;;10.60;96.53;97095.78;4966625;28;20240;-58
2023/03/14 00:42:49;;;;;;;0.00;0.00;;;;;;;10.57;97.58;97105.81;4964710;28;20322;-58
2023/03/14 00:45:15;;;;;;;0.00;0.00;;;;;;;10.53;98.59;97109.78;4967935;28;20595;-58
2023/03/14 00:47:45;;;;;;;0.00;0.00;;;;;;;10.56;97.73;97097.16;4947072;28;20227;-56
2023/03/14 00:50:14;;;;;;;0.00;0.00;;;;;;;10.53;98.35;97094.13;4966539;28;20235;-57
2023/03/14 00:52:40;;;;;;;0.00;0.00;;;;;;;10.51;99.09;97109.97;4964663;28;20236;-57
2023/03/14 00:55:07;;;;;;;0.00;0.00;;;;;;;10.45;98.58;97115.91;4962896;28;20248;-57
2023/03/14 00:57:34;;;;;;;0.00;0.00;;;;;;;10.48;97.08;97092.06;4964794;28;20577;-57
2023/03/14 01:00:00;;;;;;;0.00;0.00;;;;;;;10.50;97.84;97102.34;4965025;28;20230;-57
2023/03/14 01:02:27;;;;;;;0.00;0.00;;;;;;;10.48;95.80;97076.41;4965992;28;20357;-57
2023/03/14 01:04:56;;;;;;;0.00;0.00;;;;;;;10.49;95.89;97080.63;4947505;28;20227;-57
2023/03/14 01:07:24;;;;;;;0.00;0.00;;;;;;;10.45;97.49;97077.63;4950174;28;20225;-57
2023/03/14 01:09:52;;;;;;;0.00;0.00;;;;;;;10.40;98.28;97060.91;4964134;28;20252;-58
2023/03/14 01:12:19;;;;;;;0.00;0.00;;;;;;;10.36;99.16;97051.81;4948712;28;20233;-57
2023/03/14 01:14:46;;;;;;;0.00;0.00;;;;;;;10.27;99.88;97049.31;4938490;28;20606;-58
2023/03/14 01:17:12;;;;;;;0.00;0.00;;;;;;;10.22;98.61;97048.28;4966536;28;20232;-57
2023/03/14 01:19:39;;;;;;;0.00;0.00;;;;;;;10.21;98.97;97047.47;4946682;28;20236;-58
2023/03/14 01:22:05;;;;;;;0.00;0.00;;;;;;;10.17;100.00;97056.66;4967322;28;20252;-57
2023/03/14 01:24:33;;;;;;;0.00;0.00;;;;;;;10.15;99.43;97045.59;4965740;28;20568;-57
2023/03/14 01:27:00;;;;;;;0.00;0.00;;;;;;;10.18;97.27;97043.44;4961969;28;20231;-57
2023/03/14 01:29:28;;;;;;;0.00;0.00;;;;;;;10.17;97.82;97028.78;4948200;28;20293;-59
2023/03/14 01:31:54;;;;;;;0.00;0.00;;;;;;;10.15;98.02;97032.56;4963990;28;20250;-58
2023/03/14 01:34:21;;;;;;;0.00;0.00;;;;;;;10.13;98.24;97032.78;4964932;28;20214;-58
2023/03/14 01:36:49;;;;;;;0.00;0.00;;;;;;;10.14;97.36;97016.13;4961766;28;20240;-58
2023/03/14 01:39:16;;;;;;;0.00;0.00;;;;;;;10.10;97.68;97014.06;4965453;28;20569;-58
2023/03/14 01:41:44;;;;;;;0.00;0.00;;;;;;;10.05;97.28;97017.25;4945698;28;20240;-58
2023/03/14 01:44:11;;;;;;;0.00;0.00;;;;;;;10.03;97.53;97020.06;4964991;28;20227;-58
2023/03/14 01:46:40;;;;;;;0.00;0.00;;;;;;;10.02;96.31;97012.41;4961551;28;20222;-57
2023/03/14 01:49:12;;;;;;;0.00;0.00;;;;;;;10.01;96.27;96995.16;4946368;28;20380;-57
2023/03/14 01:51:46;;;;;;;0.00;0.00;;;;;;;9.96;97.29;97008.78;4930055;28;20229;-57
2023/03/14 01:54:20;;;;;;;0.00;0.00;;;;;;;10.03;95.00;96996.59;4964446;28;20235;-57
2023/03/14 01:56:53;;;;;;;0.00;0.00;;;;;;;9.99;95.88;97018.00;4944646;28;20318;-58
2023/03/14 01:59:20;;;;;;;0.00;0.00;;;;;;;9.97;96.50;97019.97;4948183;28;20224;-57
2023/03/14 02:01:50;;;;;;;0.00;0.00;;;;;;;10.00;96.48;97011.78;4942414;28;20245;-58
2023/03/14 02:04:20;;;;;;;0.00;0.00;;;;;;;9.94;96.27;97022.97;4943105;28;20386;-57
2023/03/14 02:06:52;;;;;;;0.00;0.00;;;;;;;9.94;95.35;97029.00;4956064;28;20603;-57
2023/03/14 02:09:21;;;;;;;0.00;0.00;;;;;;;9.93;95.35;97027.38;4948220;28;20602;-56
2023/03/14 02:11:51;;;;;;;0.00;0.00;;;;;;;9.95;95.21;97011.53;4941826;28;20288;-57
2023/03/14 02:14:38;;;;;;;0.00;0.00;;;;;;;9.93;95.98;96997.88;4923994;29;20221;-57
2023/03/14 02:17:25;;;;;;;0.00;0.00;;;;;;;9.96;95.53;96995.72;4946155;29;20232;-57
2023/03/14 02:20:28;;;;;;;0.00;0.00;;;;;;;9.95;94.59;97012.38;4961832;28;20624;-57
2023/03/14 02:22:59;;;;;;;0.00;0.00;;;;;;;9.96;94.87;96985.31;4943365;28;20605;-56
2023/03/14 02:25:39;;;;;;;0.00;0.00;;;;;;;9.92;94.50;96975.44;4963116;28;20251;-57
2023/03/14 02:28:07;;;;;;;0.00;0.00;;;;;;;9.90;95.26;96983.44;4946535;28;20251;-58
2023/03/14 02:30:35;;;;;;;0.00;0.00;;;;;;;9.85;94.93;96978.00;4938118;28;20226;-57
2023/03/14 02:33:04;;;;;;;0.00;0.00;;;;;;;9.86;95.20;96988.22;4938417;28;20236;-58
2023/03/14 02:35:36;;;;;;;0.00;0.00;;;;;;;9.82;94.11;96994.78;4963621;28;20228;-58
2023/03/14 02:38:10;;;;;;;0.00;0.00;;;;;;;9.86;92.35;96969.19;4963740;28;20291;-57
2023/03/14 02:40:40;;;;;;;0.00;0.00;;;;;;;9.86;92.55;96983.00;4945492;28;20592;-57
2023/03/14 02:43:08;;;;;;;0.00;0.00;;;;;;;9.87;92.43;96987.22;4964075;28;20220;-56
2023/03/14 02:45:45;;;;;;;0.00;0.00;;;;;;;9.85;91.20;96986.59;4954237;28;20233;-57
2023/03/14 02:48:18;;;;;;;0.00;0.00;;;;;;;9.94;90.21;96986.47;4948149;28;20299;-57
2023/03/14 02:50:48;;;;;;;0.00;0.00;;;;;;;9.92;90.72;96963.22;4944581;28;20895;-57
2023/03/14 02:53:19;;;;;;;8.07;3.03;;;;;;;9.89;90.48;96964.38;4963749;28;20233;-57
2023/03/14 02:55:47;;;;;;;0.00;0.00;;;;;;;9.93;88.46;96964.84;4945240;28;20573;-57
2023/03/14 02:58:17;;;;;;;0.33;0.10;;;;;;;9.90;90.51;96947.75;4941449;28;20225;-58
2023/03/14 03:00:46;;;;;;;3.77;0.60;;;;;;;9.88;89.77;96952.34;4945005;28;20235;-57
2023/03/14 03:03:13;;;;;;;4.83;0.80;;;;;;;9.90;88.75;96929.50;4946615;28;20235;-56
2023/03/14 03:05:42;;;;;;;3.07;0.60;;;;;;;9.93;88.74;96924.91;4961544;28;20224;-56
2023/03/14 03:08:09;;;;;;;2.43;0.33;;;;;;;9.92;86.62;96929.34;4947559;28;20228;-56
2023/03/14 03:10:37;;;;;;;4.00;0.63;;;;;;;9.95;86.21;96928.97;4960530;28;20310;-57
2023/03/14 03:13:04;;;;;;;3.97;0.53;;;;;;;9.94;84.95;96916.09;4948612;28;20731;-57
2023/03/14 03:15:32;;;;;;;2.73;0.80;;;;;;;9.93;85.18;96920.53;4939328;28;20259;-57
2023/03/14 03:17:59;;;;;;;3.43;0.63;;;;;;;10.00;82.86;96921.38;4963029;28;20235;-56
2023/03/14 03:20:26;;;;;;;3.50;0.80;;;;;;;10.06;83.45;96906.78;4957987;28;20220;-56
2023/03/14 03:22:52;;;;;;;2.00;0.83;;;;;;;10.00;83.70;96912.75;4944615;28;20234;-57
2023/03/14 03:25:19;;;;;;;4.30;0.80;;;;;;;9.95;83.38;96894.25;4962809;28;20282;-57
2023/03/14 03:27:46;;;;;;;3.57;0.53;;;;;;;9.94;84.90;96895.25;4963452;28;20220;-56
2023/03/14 03:30:15;;;;;;;1.50;0.70;;;;;;;9.90;83.69;96900.06;4967848;28;20229;-56
2023/03/14 03:32:44;;;;;;;3.77;0.60;;;;;;;9.88;83.67;96892.41;4954146;28;20228;-54
2023/03/14 03:35:12;;;;;;;2.93;0.63;;;;;;;9.88;83.61;96891.63;4950986;28;20224;-56
2023/03/14 03:37:39;;;;;;;3.90;0.60;;;;;;;9.88;82.43;96889.81;4964021;28;20304;-57
2023/03/14 03:40:08;;;;;;;2.50;0.50;;;;;;;9.85;83.24;96882.34;4950735;28;20307;-56
2023/03/14 03:42:36;;;;;;;5.97;0.57;;;;;;;9.85;82.99;96886.78;4947748;28;20248;-56
2023/03/14 03:45:06;;;;;;;3.27;0.80;;;;;;;9.86;81.57;96883.97;4951083;28;20231;-54
2023/03/14 03:47:36;;;;;;;4.33;0.63;;;;;;;9.86;82.80;96889.19;4964553;28;20237;-57
2023/03/14 03:50:05;;;;;;;2.13;0.40;;;;;;;9.88;81.48;96863.75;4967389;28;20256;-56
2023/03/14 03:52:32;;;;;;;2.63;0.50;;;;;;;9.88;81.99;96870.75;4966219;28;20231;-56
2023/03/14 03:54:59;;;;;;;6.80;0.80;;;;;;;9.88;81.89;96873.38;4965557;28;20591;-56
2023/03/14 03:57:28;;;;;;;5.47;0.57;;;;;;;9.89;81.29;96867.16;4950106;28;20237;-55
2023/03/14 03:59:54;;;;;;;4.30;0.90;;;;;;;9.90;81.55;96859.16;4966791;28;21351;-56
2023/03/14 04:02:21;;;;;;;6.27;0.83;;;;;;;9.88;81.03;96873.38;4966779;28;20243;-55
2023/03/14 04:04:49;;;;;;;3.83;0.83;;;;;;;9.87;81.68;96858.72;4963926;28;20307;-57
2023/03/14 04:07:19;;;;;;;5.10;0.80;;;;;;;9.86;82.27;96863.13;4967164;28;20237;-56
2023/03/14 04:09:46;;;;;;;1.83;0.70;;;;;;;9.87;81.53;96862.13;4958345;28;20231;-57
2023/03/14 04:12:23;;;;;;;5.43;0.87;;;;;;;9.79;83.15;96853.66;4950017;28;20238;-54
2023/03/14 04:15:05;;;;;;;2.77;0.80;;;;;;;9.71;85.05;96850.19;4963846;28;20225;-56
2023/03/14 04:17:32;;;;;;;2.37;0.50;;;;;;;9.69;85.59;96840.94;4965012;28;20233;-56
2023/03/14 04:19:59;;;;;;;4.77;0.70;;;;;;;9.72;82.80;96828.34;4965177;28;20240;-55
2023/03/14 04:22:35;;;;;;;3.60;0.60;;;;;;;9.76;82.14;96818.34;4965727;28;20249;-57
2023/03/14 04:25:03;;;;;;;2.77;0.70;;;;;;;9.78;82.29;96839.03;4964974;28;20228;-56
2023/03/14 04:27:32;;;;;;;3.70;1.13;;;;;;;9.75;82.25;96825.38;4964601;28;20232;-56
2023/03/14 04:30:00;;;;;;;3.40;0.43;;;;;;;9.77;82.47;96845.22;4966288;28;20284;-55
2023/03/14 04:32:47;;;;;;;4.97;0.60;;;;;;;9.81;83.03;96841.25;5103546;23;32205;-54
2023/03/14 04:35:14;;;;;;;2.00;0.40;;;;;;;9.83;81.91;96834.84;4999629;28;20263;-54
2023/03/14 04:37:43;;;;;;;5.23;0.67;;;;;;;9.81;82.09;96826.41;4999158;28;20312;-56
2023/03/14 04:40:11;;;;;;;3.57;0.60;;;;;;;9.80;82.59;96816.97;5001403;28;20744;-54
2023/03/14 04:42:38;;;;;;;5.07;1.00;;;;;;;9.84;82.37;96818.22;4998875;28;20232;-55
2023/03/14 04:45:07;;;;;;;1.43;0.40;;;;;;;9.84;81.20;96807.78;4985458;28;20231;-55
2023/03/14 04:47:34;;;;;;;1.57;0.40;;;;;;;9.86;82.76;96811.00;4985387;28;20227;-56
2023/03/14 04:50:04;;;;;;;5.53;0.63;;;;;;;9.83;82.47;96823.63;4982053;28;21135;-55
2023/03/14 04:52:31;;;;;;;5.50;0.70;;;;;;;9.83;83.56;96816.59;4984552;28;20227;-53
2023/03/14 04:55:00;;;;;;;3.47;0.70;;;;;;;9.83;82.60;96821.81;4984009;28;20236;-55
2023/03/14 04:57:27;;;;;;;3.10;0.60;;;;;;;9.83;82.65;96808.78;4995300;28;20240;-54
2023/03/14 04:59:55;;;;;;;4.20;0.60;;;;;;;9.79;83.14;96807.56;4983455;28;20314;-54
2023/03/14 05:02:45;;;;;;;1.90;0.30;;;;;;;9.78;82.38;96808.53;4948004;28;20375;-56
2023/03/14 05:05:21;;;;;;;2.47;0.53;;;;;;;9.78;83.50;96805.16;4976936;28;20314;-55
2023/03/14 05:08:06;;;;;;;2.30;0.40;;;;;;;9.83;81.21;96800.97;4984539;28;20711;-53
2023/03/14 05:10:42;;;;;;;2.40;0.40;;;;;;;9.82;83.72;96798.56;4982983;28;20750;-56
2023/03/14 05:13:32;;;;;;;4.00;0.53;;;;;;;9.76;84.64;96797.50;4985308;28;20238;-55
2023/03/14 05:16:12;;;;;;;3.33;0.50;;;;;;;9.76;83.32;96792.28;4983970;28;20246;-54
2023/03/14 05:19:02;;;;;;;4.37;0.40;;;;;;;9.77;83.37;96787.91;4952350;28;20779;-56
2023/03/14 05:21:45;;;;;;;5.63;0.43;;;;;;;9.72;83.18;96798.88;4984581;28;20580;-56
2023/03/14 05:24:15;;;;;;;3.03;0.43;;;;;;;9.73;81.65;96775.25;4986360;28;20322;-55
2023/03/14 05:27:12;;;;;;;3.13;1.10;;;;;;;9.70;82.51;96791.28;4958726;28;20314;-54
2023/03/14 05:29:42;;;;;;;1.93;0.50;;;;;;;9.68;82.13;96779.41;4981866;28;20231;-54
2023/03/14 05:32:27;;;;;;;2.03;0.40;;;;;;;9.66;83.34;96773.59;4969237;28;20247;-56
2023/03/14 05:35:12;;;;;;;6.33;3.07;;;;;;;9.61;83.99;96776.78;4975666;28;20238;-55
2023/03/14 05:37:47;;;;;;;3.13;0.90;;;;;;;9.65;82.93;96764.16;4988948;28;20234;-55
2023/03/14 05:40:35;;;;;;;2.17;1.10;;;;;;;9.65;83.57;96759.78;4970199;28;20662;-56
2023/03/14 05:43:12;;;;;;;3.10;0.70;;;;;;;9.61;84.23;96755.94;4985320;28;20753;-54
2023/03/14 05:45:58;;;;;;;2.17;0.90;;;;;;;9.58;83.43;96754.50;4979172;28;20333;-55
2023/03/14 05:48:42;;;;;;;0.77;0.40;;;;;;;9.74;81.51;96756.03;4972888;28;20707;-54
2023/03/14 05:51:24;;;;;;;1.20;0.30;;;;;;;9.73;81.23;96740.56;4982971;28;20235;-56
2023/03/14 05:54:01;;;;;;;3.57;0.50;;;;;;;9.71;80.88;96734.75;4982151;28;20699;-54
2023/03/14 05:56:45;;;;;;;3.27;0.73;;;;;;;9.71;81.91;96734.75;4981099;28;20802;-54
2023/03/14 05:59:28;;;;;;;3.73;2.27;;;;;;;9.69;80.24;96727.13;4983901;28;20334;-54
2023/03/14 06:02:09;;;;;;;10.70;5.57;;;;;;;9.62;81.38;96715.88;4982019;28;20277;-55
2023/03/14 06:04:48;;;;;;;3.97;1.93;;;;;;;9.62;81.89;96705.44;4982155;28;20235;-53
2023/03/14 06:07:15;;;;;;;4.50;0.70;;;;;;;9.68;80.66;96719.50;5000600;28;20312;-55
2023/03/14 06:09:42;;;;;;;3.40;0.60;;;;;;;9.69;81.15;96710.69;4972603;28;20251;-56
2023/03/14 06:12:09;;;;;;;1.70;0.83;;;;;;;9.75;81.42;96722.94;4983181;28;20239;-55
2023/03/14 06:14:43;;;;;;;1.87;0.80;;;;;;;9.80;81.52;96719.78;4981085;28;20239;-57
2023/03/14 06:17:09;;;;;;;3.13;0.40;;;;;;;9.75;81.49;96709.91;4999914;28;20284;-53
2023/03/14 06:19:43;;;;;;;3.00;0.70;;;;;;;9.70;80.74;96704.47;4980694;28;20240;-54
2023/03/14 06:22:13;;;;;;;1.50;0.50;;;;;;;9.57;84.21;96692.97;4983898;28;20763;-55
2023/03/14 06:24:41;;;;;;;2.70;1.17;;;;;;;9.48;84.89;96706.38;4979700;28;20594;-55
2023/03/14 06:27:07;;;;;;;2.37;1.03;;;;;;;9.49;85.89;96721.81;4982700;28;20250;-55
2023/03/14 06:29:34;;;;;;;3.30;1.73;;;;;;;9.55;84.71;96717.63;4998130;28;20228;-54
2023/03/14 06:32:04;;;;;;;1.10;0.50;;;;;;;9.68;82.04;96701.25;4997139;28;20242;-54
2023/03/14 06:34:31;;;;;;;2.17;0.50;;;;;;;9.74;82.88;96713.53;4982345;28;20317;-55
2023/03/14 06:36:57;;;;;;;2.83;0.30;;;;;;;9.83;81.49;96714.97;4981418;28;20677;-54
2023/03/14 06:39:24;;;;;;;2.27;0.60;;;;;;;9.86;81.39;96714.59;4983483;28;20309;-52
2023/03/14 06:42:00;;;;;;;1.37;0.60;;;;;;;9.96;82.03;96710.81;4979978;28;20239;-55
2023/03/14 06:44:27;;;;;;;1.13;0.40;;;;;;;9.96;81.35;96710.81;4983319;28;20230;-52
2023/03/14 06:46:54;;;;;;;0.93;0.40;;;;;;;10.09;79.93;96720.47;4973551;28;20265;-55
2023/03/14 06:49:22;;;;;;;2.27;0.97;;;;;;;10.09;81.31;96707.44;4975524;28;20240;-53
2023/03/14 06:51:52;;;;;;;2.60;0.40;;;;;;;10.14;79.47;96702.44;4979852;28;20251;-52
2023/03/14 06:54:19;;;;;;;5.30;2.60;;;;;;;10.15;79.28;96704.06;4998520;28;20707;-52
2023/03/14 06:56:46;;;;;;;2.67;0.50;;;;;;;10.33;77.13;96699.09;4980667;28;20314;-52
2023/03/14 06:59:14;;;;;;;2.57;0.50;;;;;;;10.37;77.68;96691.72;5001361;28;20238;-54
2023/03/14 07:01:41;;;;;;;2.90;0.83;;;;;;;10.45;77.28;96704.59;4983149;28;20997;-54
2023/03/14 07:04:11;;;;;;;5.33;1.10;;;;;;;10.51;75.75;96720.47;4986263;28;20462;-56
2023/03/14 07:06:44;;;;;;;2.47;0.50;;;;;;;10.51;75.77;96707.41;4984224;28;20237;-56
2023/03/14 07:09:11;;;;;;;3.20;0.80;;;;;;;10.45;75.17;96706.38;4981495;28;20227;-54
2023/03/14 07:11:41;;;;;;;2.50;0.40;;;;;;;10.48;76.40;96725.06;4972276;28;20250;-55
2023/03/14 07:14:08;;;;;;;2.27;0.30;;;;;;;10.60;74.90;96729.72;4982716;28;20735;-56
2023/03/14 07:16:35;;;;;;;3.00;0.30;;;;;;;10.48;76.15;96716.44;4974934;28;20258;-55
2023/03/14 07:19:02;;;;;;;0.40;0.20;;;;;;;10.37;75.99;96711.75;5001288;28;20232;-55
2023/03/14 07:21:29;;;;;;;0.67;0.30;;;;;;;10.46;76.01;96711.44;4985505;28;20222;-55
2023/03/14 07:23:57;;;;;;;0.93;0.33;;;;;;;10.41;76.67;96726.84;4985122;28;20284;-55
2023/03/14 07:26:24;;;;;;;0.83;0.30;;;;;;;10.26;78.53;96720.97;4987249;28;20231;-54
2023/03/14 07:28:52;;;;;;;2.33;0.30;;;;;;;10.31;76.02;96705.53;4984581;28;20754;-56
2023/03/14 07:31:20;;;;;;;0.97;0.33;;;;;;;10.32;76.75;96713.16;4987220;28;20235;-55
2023/03/14 07:33:47;;;;;;;1.10;0.30;;;;;;;10.46;75.24;96710.59;4984032;28;20588;-56
2023/03/14 07:36:14;;;;;;;1.13;0.30;;;;;;;10.65;75.00;96716.84;4986384;28;20309;-55
2023/03/14 07:38:43;;;;;;;0.43;0.27;;;;;;;10.84;74.33;96727.53;4982896;28;20281;-54
2023/03/14 07:41:47;;;;;;;0.73;0.10;;;;;;;11.00;73.19;96726.34;4972936;28;20237;-56
2023/03/14 07:44:42;;;;;;;1.27;0.70;;;;;;;10.92;72.07;96720.31;4982709;28;20231;-53
2023/03/14 07:47:09;;;;;;;1.07;0.27;;;;;;;10.93;70.98;96729.75;4988516;28;20708;-54
2023/03/14 07:49:35;;;;;;;1.50;0.33;;;;;;;11.01;72.42;96696.63;4985058;28;20240;-58
2023/03/14 07:52:02;;;;;;;2.23;0.83;;;;;;;11.14;72.71;96720.09;4988192;28;20639;-55
2023/03/14 07:54:29;;;;;;;3.10;1.17;;;;;;;11.24;72.50;96732.75;4986647;28;20248;-54
2023/03/14 07:56:58;;;;;;;7.87;4.73;;;;;;;11.35;70.45;96740.00;4986340;28;20303;-54
2023/03/14 07:59:25;;;;;;;0.90;0.30;;;;;;;11.55;68.54;96738.34;4988090;28;20237;-55
2023/03/14 08:01:51;;;;;;;2.17;0.87;;;;;;;11.45;70.87;96736.16;4984238;28;20967;-54
2023/03/14 08:04:18;;;;;;;1.30;0.70;;;;;;;11.52;70.09;96740.38;4987544;28;20233;-56
2023/03/14 08:06:44;;;;;;;2.77;1.03;;;;;;;11.57;69.87;96720.66;4985130;28;20242;-56
2023/03/14 08:09:11;;;;;;;3.63;1.57;;;;;;;11.34;70.78;96754.06;4986402;28;20247;-53
2023/03/14 08:11:38;;;;;;;3.60;0.50;;;;;;;11.36;71.46;96749.44;4984737;28;20225;-56
2023/03/14 08:14:06;;;;;;;4.13;2.17;;;;;;;11.41;72.39;96758.47;4986376;28;20783;-55
2023/03/14 08:16:32;;;;;;;3.67;1.90;;;;;;;11.42;71.09;96753.03;4985697;28;20244;-56
2023/03/14 08:18:59;;;;;;;1.23;0.30;;;;;;;11.44;70.23;96771.13;4973745;28;20287;-55
2023/03/14 08:21:25;;;;;;;2.07;0.60;;;;;;;11.18;71.31;96770.91;4975564;28;20560;-55
2023/03/14 08:23:52;;;;;;;1.07;0.60;;;;;;;11.36;71.30;96759.06;4980071;28;20624;-58
2023/03/14 08:26:18;;;;;;;4.53;2.27;;;;;;;11.54;71.45;96783.78;4985846;28;20719;-57
2023/03/14 08:28:45;;;;;;;1.30;0.40;;;;;;;11.47;73.22;96768.91;4983875;28;20760;-57
2023/03/14 08:31:14;;;;;;;1.40;0.50;;;;;;;11.45;72.85;96773.53;4986796;28;20769;-60
2023/03/14 08:33:40;;;;;;;1.80;0.40;;;;;;;11.46;70.55;96772.53;4983895;28;20243;-56
2023/03/14 08:36:08;;;;;;;1.73;0.40;;;;;;;11.57;71.38;96773.75;4986933;28;20291;-59
2023/03/14 08:38:34;;;;;;;5.93;5.23;;;;;;;11.48;72.44;96799.25;4985830;28;20235;-59
2023/03/14 08:41:03;;;;;;;2.10;0.83;;;;;;;11.61;70.00;96789.81;4984801;28;20247;-58
2023/03/14 08:43:30;;;;;;;0.57;0.30;;;;;;;11.63;71.59;96800.84;4985302;28;20315;-57
2023/03/14 08:45:58;;;;;;;1.77;0.60;;;;;;;11.56;71.23;96806.09;4985547;28;20235;-58
2023/03/14 08:48:26;;;;;;;1.23;0.40;;;;;;;11.62;70.95;96797.44;4986491;28;20287;-55
2023/03/14 08:50:53;;;;;;;2.17;0.60;;;;;;;11.87;70.75;96809.06;4983269;28;20248;-57
2023/03/14 08:53:22;;;;;;;4.83;0.33;;;;;;;11.84;73.10;96810.28;4971223;28;20354;-56
2023/03/14 08:55:52;;;;;;;0.90;0.33;;;;;;;11.83;71.38;96792.97;4979858;28;30606;-57
2023/03/14 08:58:19;;;;;;;3.13;0.67;;;;;;;11.66;72.44;96803.84;4984378;28;20225;-57
2023/03/14 09:00:45;;;;;;;0.30;0.20;;;;;;;11.63;74.47;96814.75;4983048;28;20226;-57
2023/03/14 09:03:12;;;;;;;0.30;0.20;;;;;;;11.37;73.15;96825.97;4985916;28;20235;-58
2023/03/14 09:05:40;;;;;;;1.13;0.37;;;;;;;11.42;73.29;96823.56;4981442;28;20239;-57
2023/03/14 09:08:07;;;;;;;1.00;0.17;;;;;;;11.45;72.40;96822.38;4985107;28;20231;-57
2023/03/14 09:10:33;;;;;;;0.63;0.20;;;;;;;11.56;72.04;96818.34;4984236;28;20236;-58
2023/03/14 09:13:00;;;;;;;2.00;0.20;;;;;;;11.62;71.29;96814.94;4984391;28;20612;-55
2023/03/14 09:15:27;;;;;;;1.13;0.60;;;;;;;11.81;71.52;96813.28;4986152;28;20870;-55
2023/03/14 09:17:53;;;;;;;1.53;0.20;;;;;;;11.76;70.52;96824.38;4973263;28;20311;-58
2023/03/14 09:20:20;;;;;;;0.87;0.30;;;;;;;11.90;69.99;96812.06;4973442;28;20239;-58
2023/03/14 09:22:48;;;;;;;0.30;0.20;;;;;;;12.16;69.23;96810.44;4965874;28;20290;-59
2023/03/14 09:25:15;;;;;;;0.67;0.30;;;;;;;12.04;67.88;96809.47;4968212;28;20232;-59
2023/03/14 09:27:41;;;;;;;0.57;0.33;;;;;;;12.34;67.21;96816.81;4981996;28;20750;-57
2023/03/14 09:30:09;;;;;;;2.90;0.73;;;;;;;12.38;66.74;96803.09;4986492;28;20246;-58
2023/03/14 09:32:36;;;;;;;0.60;0.20;;;;;;;12.04;66.18;96835.63;4974505;28;20241;-58
2023/03/14 09:35:03;;;;;;;1.43;0.40;;;;;;;11.60;68.88;96811.72;4974717;28;20244;-57
2023/03/14 09:37:30;;;;;;;0.40;0.20;;;;;;;11.73;68.48;96816.94;4981485;28;20250;-56
2023/03/14 09:39:58;;;;;;;0.60;0.37;;;;;;;11.84;68.87;96823.34;4982192;28;20715;-57
2023/03/14 09:42:28;;;;;;;1.13;0.40;;;;;;;11.85;69.03;96817.09;4966765;28;20234;-57
2023/03/14 09:44:58;;;;;;;1.17;0.30;;;;;;;11.96;71.27;96828.78;4979732;28;20317;-58
2023/03/14 09:47:25;;;;;;;1.40;0.50;;;;;;;11.96;72.17;96834.00;4981351;28;20239;-57
2023/03/14 09:49:52;;;;;;;1.50;0.70;;;;;;;11.71;71.15;96839.03;4980516;28;20238;-57
2023/03/14 09:52:24;;;;;;;2.43;1.73;;;;;;;11.54;73.60;96846.50;4965480;28;20326;-58
2023/03/14 09:54:54;;;;;;;1.17;0.30;;;;;;;11.60;76.56;96843.88;4980828;28;20239;-57
2023/03/14 09:57:25;;;;;;;1.90;0.70;;;;;;;11.53;75.13;96848.31;4979654;28;20276;-57
2023/03/14 09:59:55;;;;;;;0.13;0.13;;;;;;;11.44;75.10;96852.91;4965841;28;20765;-57
2023/03/14 10:02:24;;;;;;;1.00;0.37;;;;;;;11.19;81.01;96863.13;4975360;28;21220;-58
2023/03/14 10:04:53;;;;;;;3.10;0.50;;;;;;;10.84;83.75;96856.22;4981584;28;20242;-57
2023/03/14 10:07:23;;;;;;;0.80;0.40;;;;;;;10.50;84.91;96878.78;4986112;28;20236;-57
2023/03/14 10:09:52;;;;;;;0.20;0.20;;;;;;;10.66;85.38;96877.63;4981307;28;20243;-57
2023/03/14 10:12:19;;;;;;;0.50;0.50;;;;;;;10.72;87.53;96900.34;4973236;28;20244;-57
2023/03/14 10:14:49;;;;;;;1.43;0.33;;;;;;;10.51;89.50;96890.81;4982045;28;20235;-57
2023/03/14 10:17:17;;;;;;;1.13;0.40;;;;;;;10.65;90.03;96883.06;4976732;28;20327;-57
2023/03/14 10:19:56;;;;;;;0.40;0.20;;;;;;;10.14;92.34;96884.94;4982397;28;20232;-58
2023/03/14 10:22:25;;;;;;;0.57;0.30;;;;;;;10.25;94.53;96892.25;4979069;28;20237;-57
2023/03/14 10:24:55;;;;;;;3.47;0.70;;;;;;;10.10;95.07;96884.53;4970469;28;20244;-56
2023/03/14 10:27:27;;;;;;;1.83;1.00;;;;;;;10.25;95.45;96875.81;4966015;28;20255;-57
2023/03/14 10:29:57;;;;;;;1.10;0.40;;;;;;;10.29;92.59;96890.06;4980276;28;20245;-58
2023/03/14 10:32:32;;;;;;;0.23;0.20;;;;;;;10.19;92.15;96891.22;4983940;28;20306;-57
2023/03/14 10:35:21;;;;;;;2.40;0.40;;;;;;;10.41;95.95;96885.97;4970894;28;20268;-58
2023/03/14 10:37:51;;;;;;;1.77;0.30;;;;;;;10.39;94.84;96893.19;4981600;28;20753;-57
2023/03/14 10:40:19;;;;;;;0.53;0.30;;;;;;;9.92;98.62;96894.63;4978121;28;21088;-58
2023/03/14 10:42:47;;;;;;;0.80;0.40;;;;;;;10.14;99.35;96905.81;4978574;28;20231;-58
2023/03/14 10:45:31;;;;;;;0.70;0.20;;;;;;;9.98;95.94;96896.47;4973705;28;20236;-57
2023/03/14 10:48:16;;;;;;;0.97;0.23;;;;;;;9.94;98.15;96924.75;4982742;28;20310;-57
2023/03/14 10:50:49;;;;;;;0.20;0.10;;;;;;;9.78;97.65;96909.38;4981798;28;20246;-55
2023/03/14 10:53:18;;;;;;;1.03;0.40;;;;;;;9.66;99.15;96938.53;4984751;28;20231;-56
2023/03/14 10:55:45;;;;;;;0.40;0.27;;;;;;;9.63;98.24;96941.50;4973432;28;20261;-58
2023/03/14 10:58:21;;;;;;;0.40;0.23;;;;;;;9.60;100.00;96957.50;4985056;28;20729;-58
2023/03/14 11:00:54;;;;;;;0.97;0.40;;;;;;;9.58;100.00;96957.69;4982369;28;20238;-55
2023/03/14 11:03:22;;;;;;;1.63;0.30;;;;;;;9.53;100.00;96957.47;4984370;28;20310;-56
2023/03/14 11:05:55;;;;;;;1.03;0.50;;;;;;;9.67;99.66;96971.41;4981469;28;20717;-57
2023/03/14 11:08:27;;;;;;;0.30;0.10;;;;;;;9.62;100.00;96965.94;4985088;28;20318;-57
2023/03/14 11:10:57;;;;;;;1.17;1.07;;;;;;;9.41;100.00;96969.34;4979027;28;20231;-57
2023/03/14 11:13:27;;;;;;;3.20;0.30;;;;;;;9.39;100.00;96998.16;4964345;28;20225;-54
2023/03/14 11:16:09;;;;;;;0.47;0.23;;;;;;;9.26;100.00;97044.88;4966024;28;20239;-57
2023/03/14 11:19:01;;;;;;;0.30;0.30;;;;;;;8.78;100.00;97061.69;4974765;28;20235;-56
2023/03/14 11:21:33;;;;;;;0.00;0.00;;;;;;;8.71;100.00;97120.59;4977900;28;20536;-59
2023/03/14 11:24:19;;;;;;;0.00;0.00;;;;;;;8.63;100.00;97133.69;4981090;28;20253;-57
2023/03/14 11:26:53;;;;;;;0.00;0.00;;;;;;;8.75;100.00;97144.47;4980618;28;20226;-58
2023/03/14 11:29:28;;;;;;;0.00;0.00;;;;;;;8.80;100.00;97135.16;4983577;28;20781;-58
2023/03/14 11:31:59;;;;;;;0.00;0.00;;;;;;;8.70;100.00;97192.63;4980860;28;20300;-57
2023/03/14 11:34:29;;;;;;;0.00;0.00;;;;;;;8.56;98.04;97160.38;4982818;28;20308;-56
2023/03/14 11:37:00;;;;;;;0.00;0.00;;;;;;;8.50;98.02;97183.66;4981352;28;20305;-56
2023/03/14 11:39:35;;;;;;;0.00;0.00;;;;;;;8.45;90.74;97204.97;4982974;28;20266;-58
2023/03/14 11:42:03;;;;;;;0.00;0.00;;;;;;;8.54;86.91;97224.78;4979869;28;20760;-55
2023/03/14 11:44:34;;;;;;;0.00;0.00;;;;;;;8.47;84.21;97236.00;4968054;28;20236;-55
2023/03/14 11:47:07;;;;;;;0.00;0.00;;;;;;;8.49;81.76;97253.06;4984900;28;20249;-51
2023/03/14 11:49:38;;;;;;;0.00;0.00;;;;;;;8.52;77.89;97255.34;4985164;28;20664;-53
2023/03/14 11:52:13;;;;;;;0.00;0.00;;;;;;;8.74;74.08;97246.91;4985322;28;20799;-57